Time;durP1;ratioP1;P1;durP2;ratioP2;P2;SDS_P1;SDS_P2;PMS_P1;PMS_P2;Temp;Humidity;BMP_temperature;BMP_pressure;BME280_temperature;BME280_humidity;BME280_pressure;Samples;Min_cycle;Max_cycle;Signal;HPM_P1;HPM_P2
2022/09/08 00:00:14;;;;;;;62.05;58.85;;;;;;;24.13;43.99;100783.44;5052936;28;20033;-73
2022/09/08 00:02:40;;;;;;;63.22;59.92;;;;;;;24.12;44.56;100786.56;5047718;28;20387;-74
2022/09/08 00:05:07;;;;;;;58.22;55.17;;;;;;;24.10;44.42;100778.59;5047116;28;20037;-74
2022/09/08 00:07:35;;;;;;;60.15;56.95;;;;;;;24.10;44.26;100781.34;5043641;28;20044;-74
2022/09/08 00:10:01;;;;;;;59.03;55.88;;;;;;;24.07;44.49;100782.03;5040177;28;20052;-73
2022/09/08 00:12:27;;;;;;;62.08;58.75;;;;;;;24.06;44.70;100783.16;5048648;28;20033;-73
2022/09/08 00:14:52;;;;;;;60.22;56.80;;;;;;;24.05;44.72;100787.06;5082985;28;20048;-74
2022/09/08 00:17:18;;;;;;;57.85;54.85;;;;;;;24.03;44.84;100783.00;5053675;28;20036;-74
2022/09/08 00:19:44;;;;;;;56.83;53.92;;;;;;;24.02;44.61;100784.16;5046114;28;20233;-74
2022/09/08 00:22:10;;;;;;;60.65;57.10;;;;;;;24.00;44.65;100778.16;5040402;28;20595;-73
2022/09/08 00:24:35;;;;;;;61.97;58.53;;;;;;;23.97;44.74;100780.44;5045540;28;20037;-74
2022/09/08 00:27:00;;;;;;;60.75;57.30;;;;;;;23.97;45.01;100777.69;5071391;28;20029;-74
2022/09/08 00:29:26;;;;;;;61.97;58.47;;;;;;;23.96;45.02;100780.78;5037993;28;20187;-76
2022/09/08 00:31:51;;;;;;;57.13;54.22;;;;;;;23.94;44.88;100774.78;5042227;28;20386;-74
2022/09/08 00:34:17;;;;;;;57.08;53.78;;;;;;;23.93;45.48;100771.19;5052469;28;20392;-74
2022/09/08 00:36:42;;;;;;;60.28;57.17;;;;;;;23.92;45.39;100766.03;5040001;28;20040;-74
2022/09/08 00:39:08;;;;;;;58.92;55.30;;;;;;;23.90;45.42;100754.53;5048037;28;20045;-74
2022/09/08 00:41:35;;;;;;;63.33;59.60;;;;;;;23.89;45.31;100747.38;5049778;28;20375;-74
2022/09/08 00:44:48;;;;;;;59.10;56.00;;;;;;;23.87;45.74;100753.25;5051372;28;20428;-74
2022/09/08 00:47:35;;;;;;;57.30;54.42;;;;;;;23.85;45.50;100746.44;5040961;28;20032;-74
2022/09/08 00:50:09;;;;;;;57.33;54.23;;;;;;;23.83;45.37;100743.19;5045062;28;20158;-74
2022/09/08 00:52:42;;;;;;;61.60;57.88;;;;;;;23.82;45.41;100745.16;5049846;28;20025;-74
2022/09/08 00:55:10;;;;;;;58.38;55.33;;;;;;;23.80;45.91;100747.44;5042265;28;20460;-74
2022/09/08 00:57:35;;;;;;;58.33;54.58;;;;;;;23.80;45.48;100752.13;5035540;28;20049;-74
2022/09/08 01:00:02;;;;;;;62.72;59.38;;;;;;;23.78;45.77;100754.41;5051853;28;20029;-74
2022/09/08 01:02:28;;;;;;;57.30;53.75;;;;;;;23.77;46.18;100747.28;5042711;28;20033;-75
2022/09/08 01:05:05;;;;;;;58.55;55.35;;;;;;;23.73;46.20;100744.38;5050595;28;20063;-74
2022/09/08 01:13:25;;;;;;;55.67;52.90;;;;;;;23.69;45.71;100738.69;5047863;28;20094;-74
2022/09/08 01:15:51;;;;;;;57.87;55.00;;;;;;;23.68;46.28;100745.34;5051090;28;20049;-73
2022/09/08 01:18:16;;;;;;;60.75;57.78;;;;;;;23.67;46.23;100738.22;5044513;28;20086;-73
2022/09/08 01:20:59;;;;;;;55.38;52.65;;;;;;;23.63;45.83;100723.47;5050388;28;20029;-74
2022/09/08 01:23:41;;;;;;;55.05;52.15;;;;;;;23.63;46.11;100714.38;5033616;28;20156;-73
2022/09/08 01:26:35;;;;;;;56.25;53.10;;;;;;;23.62;46.12;100713.59;5039582;28;20080;-75
2022/09/08 01:29:04;;;;;;;56.70;53.67;;;;;;;23.59;46.21;100703.22;5049986;28;20138;-72
2022/09/08 01:31:36;;;;;;;59.80;56.58;;;;;;;23.59;46.39;100696.91;5050154;28;20036;-73
2022/09/08 01:34:02;;;;;;;54.60;51.78;;;;;;;23.58;46.66;100690.56;5051374;28;20028;-74
2022/09/08 01:36:28;;;;;;;60.53;57.17;;;;;;;23.57;46.68;100680.69;5051439;28;20556;-74
2022/09/08 01:38:53;;;;;;;56.95;54.05;;;;;;;23.55;46.63;100681.00;5082799;28;20504;-74
2022/09/08 01:41:18;;;;;;;55.40;52.63;;;;;;;23.53;46.96;100685.22;5050625;28;20397;-74
2022/09/08 01:43:44;;;;;;;57.00;54.15;;;;;;;23.52;46.95;100691.91;5050391;28;20040;-76
2022/09/08 01:46:10;;;;;;;55.25;52.55;;;;;;;23.50;46.95;100697.72;5051625;28;20047;-75
2022/09/08 01:48:35;;;;;;;57.50;54.25;;;;;;;23.49;46.56;100681.53;5044409;28;20036;-76
2022/09/08 01:51:03;;;;;;;59.42;56.08;;;;;;;23.48;46.88;100679.91;5048583;28;20090;-75
2022/09/08 01:53:30;;;;;;;57.10;54.08;;;;;;;23.45;46.55;100673.09;5031387;28;20033;-75
2022/09/08 01:55:55;;;;;;;55.63;53.00;;;;;;;23.44;46.74;100676.22;5031566;28;20040;-76
2022/09/08 01:58:21;;;;;;;54.05;51.13;;;;;;;23.43;47.11;100683.66;5033303;28;20037;-75
2022/09/08 02:00:46;;;;;;;53.58;50.88;;;;;;;23.43;47.24;100682.84;5034744;28;20034;-76
2022/09/08 02:03:12;;;;;;;55.05;52.10;;;;;;;23.41;46.93;100690.63;5041662;28;20035;-75
2022/09/08 02:05:39;;;;;;;57.13;54.30;;;;;;;23.39;47.42;100690.97;5046613;28;20036;-77
2022/09/08 02:08:05;;;;;;;57.70;54.60;;;;;;;23.38;47.26;100683.84;5048322;28;20042;-75
2022/09/08 02:10:30;;;;;;;54.50;51.90;;;;;;;23.36;47.18;100671.53;5049864;28;20036;-75
2022/09/08 02:12:56;;;;;;;52.38;49.78;;;;;;;23.35;46.98;100664.41;5048656;28;20048;-76
2022/09/08 02:15:22;;;;;;;53.45;50.65;;;;;;;23.31;47.39;100667.81;5041838;28;20427;-75
2022/09/08 02:17:47;;;;;;;55.78;52.88;;;;;;;23.31;47.06;100665.06;5045816;28;20535;-76
2022/09/08 02:20:15;;;;;;;56.28;53.63;;;;;;;23.31;47.21;100672.53;5048404;28;20047;-76
2022/09/08 02:22:41;;;;;;;54.78;51.88;;;;;;;23.27;47.09;100664.09;5048892;28;20121;-75
2022/09/08 02:25:07;;;;;;;52.58;49.97;;;;;;;23.26;47.41;100659.75;5050989;28;20068;-75
2022/09/08 02:27:33;;;;;;;55.22;52.35;;;;;;;23.25;47.25;100643.53;5049748;28;20029;-77
2022/09/08 02:29:58;;;;;;;58.80;55.75;;;;;;;23.25;47.39;100651.78;5040165;28;20496;-76
2022/09/08 02:32:24;;;;;;;54.58;51.58;;;;;;;23.23;47.19;100656.81;5043448;28;20049;-75
2022/09/08 02:34:49;;;;;;;54.75;51.88;;;;;;;23.22;47.43;100669.00;5031397;28;20064;-79
2022/09/08 02:37:15;;;;;;;58.50;55.70;;;;;;;23.20;47.36;100674.03;5031629;28;20095;-75
2022/09/08 02:39:40;;;;;;;54.92;52.08;;;;;;;23.18;47.53;100687.31;5038968;28;20110;-74
2022/09/08 02:42:06;;;;;;;52.55;50.05;;;;;;;23.17;47.53;100697.53;5048684;28;20369;-74
2022/09/08 02:44:32;;;;;;;52.60;49.80;;;;;;;23.16;47.25;100684.06;5048721;28;20059;-75
2022/09/08 02:46:57;;;;;;;54.67;51.67;;;;;;;23.15;47.60;100680.50;5032728;28;20127;-75
2022/09/08 02:49:23;;;;;;;55.25;52.55;;;;;;;23.13;47.22;100680.03;5033740;28;20056;-76
2022/09/08 02:51:48;;;;;;;54.03;51.30;;;;;;;23.11;47.64;100676.81;5031773;28;20116;-75
2022/09/08 02:54:14;;;;;;;53.67;50.85;;;;;;;23.11;47.26;100671.31;5050578;28;20374;-77
2022/09/08 02:56:39;;;;;;;53.78;51.15;;;;;;;23.09;47.54;100673.59;5049419;28;20083;-77
2022/09/08 02:59:04;;;;;;;51.92;49.33;;;;;;;23.07;47.56;100673.91;5079853;28;20094;-76
2022/09/08 03:01:30;;;;;;;53.13;50.50;;;;;;;23.06;47.52;100668.72;5058020;28;20136;-76
2022/09/08 03:03:55;;;;;;;52.05;49.55;;;;;;;23.05;47.52;100678.13;5032118;28;20477;-75
2022/09/08 03:06:21;;;;;;;55.63;52.95;;;;;;;23.03;48.03;100658.34;5036997;28;20362;-75
2022/09/08 03:08:46;;;;;;;54.60;51.63;;;;;;;23.02;47.54;100651.22;5048500;28;20037;-76
2022/09/08 03:11:13;;;;;;;50.92;48.13;;;;;;;23.01;47.78;100655.13;5041834;28;20033;-75
2022/09/08 03:13:39;;;;;;;51.50;48.95;;;;;;;23.00;47.94;100656.25;5043665;28;20052;-75
2022/09/08 03:16:05;;;;;;;52.35;49.75;;;;;;;22.99;48.13;100646.38;5048889;28;20049;-76
2022/09/08 03:18:31;;;;;;;53.55;50.85;;;;;;;22.98;47.63;100647.50;5042557;28;20373;-75
2022/09/08 03:21:09;;;;;;;54.63;51.97;;;;;;;22.96;48.08;100647.81;5033189;28;20121;-75
2022/09/08 03:23:35;;;;;;;51.00;47.97;;;;;;;22.94;48.16;100644.59;5049953;28;20029;-76
2022/09/08 03:26:06;;;;;;;53.63;51.05;;;;;;;22.93;48.36;100661.44;5048270;28;20640;-74
2022/09/08 03:28:32;;;;;;;50.28;47.80;;;;;;;22.93;47.88;100664.19;5048454;28;20029;-75
2022/09/08 03:30:58;;;;;;;54.55;51.67;;;;;;;22.90;48.27;100676.66;5049206;28;20676;-74
2022/09/08 03:33:24;;;;;;;55.80;53.00;;;;;;;22.88;47.95;100668.75;5041334;28;20147;-74
2022/09/08 03:35:49;;;;;;;54.53;51.70;;;;;;;22.86;47.95;100657.25;5027903;28;20055;-75
2022/09/08 03:38:17;;;;;;;54.20;51.38;;;;;;;22.86;47.65;100661.94;5036272;28;20493;-76
2022/09/08 03:40:43;;;;;;;52.07;49.53;;;;;;;22.84;48.03;100651.25;5069629;28;20033;-78
2022/09/08 03:43:09;;;;;;;53.47;50.78;;;;;;;22.82;48.36;100656.28;5066569;28;20048;-74
2022/09/08 03:45:34;;;;;;;53.50;50.80;;;;;;;22.81;48.25;100662.94;5044387;28;20079;-75
2022/09/08 03:48:00;;;;;;;55.40;52.33;;;;;;;22.79;47.97;100670.69;5035628;28;20036;-73
2022/09/08 03:50:25;;;;;;;52.63;49.92;;;;;;;22.77;48.35;100664.69;5036366;28;20366;-75
2022/09/08 03:52:51;;;;;;;54.08;51.30;;;;;;;22.76;48.51;100654.84;5085016;28;20044;-75
2022/09/08 03:55:17;;;;;;;51.38;48.60;;;;;;;22.75;48.49;100661.47;5032533;28;20481;-75
2022/09/08 03:57:42;;;;;;;54.45;51.75;;;;;;;22.75;48.33;100671.69;5047726;28;20032;-74
2022/09/08 04:00:10;;;;;;;53.10;50.38;;;;;;;22.74;48.83;100661.81;5035327;28;20120;-76
2022/09/08 04:02:35;;;;;;;53.47;50.53;;;;;;;22.72;48.46;100661.31;5042303;28;20124;-75
2022/09/08 04:05:01;;;;;;;52.10;49.58;;;;;;;22.70;48.84;100661.63;5043634;28;20444;-75
2022/09/08 04:07:30;;;;;;;53.95;51.15;;;;;;;22.69;48.80;100665.53;5052161;28;20133;-74
2022/09/08 04:09:56;;;;;;;54.08;51.17;;;;;;;22.68;48.83;100669.44;5051779;28;20051;-75
2022/09/08 04:12:23;;;;;;;54.03;51.33;;;;;;;22.67;48.77;100670.56;5044451;28;20040;-74
2022/09/08 04:14:49;;;;;;;50.97;48.35;;;;;;;22.66;48.90;100663.44;5046331;28;20119;-76
2022/09/08 04:17:16;;;;;;;51.85;49.25;;;;;;;22.64;49.11;100654.69;5051850;28;20121;-73
2022/09/08 04:19:42;;;;;;;53.67;50.55;;;;;;;22.63;48.70;100653.09;5037459;28;20040;-75
2022/09/08 04:22:08;;;;;;;52.60;49.78;;;;;;;22.61;48.75;100647.09;5043863;28;20523;-73
2022/09/08 04:24:33;;;;;;;51.47;48.75;;;;;;;22.60;49.18;100651.78;5053191;28;20521;-73
2022/09/08 04:26:59;;;;;;;52.92;50.05;;;;;;;22.59;49.13;100649.34;5050917;28;20297;-73
2022/09/08 04:29:24;;;;;;;53.92;50.50;;;;;;;22.58;49.41;100639.47;5017769;28;20049;-78
2022/09/08 04:31:50;;;;;;;51.35;48.60;;;;;;;22.54;48.95;100647.56;5052958;28;20036;-73
2022/09/08 04:34:16;;;;;;;56.38;53.22;;;;;;;22.55;48.95;100645.63;5052651;28;20047;-73
2022/09/08 04:36:43;;;;;;;55.97;52.90;;;;;;;22.51;49.12;100648.22;5045176;28;20037;-74
2022/09/08 04:39:09;;;;;;;53.53;50.83;;;;;;;22.51;49.28;100647.44;5035901;28;20020;-74
2022/09/08 04:41:35;;;;;;;55.53;52.38;;;;;;;22.49;49.26;100636.72;5051666;28;20075;-73
2022/09/08 04:44:02;;;;;;;52.95;50.08;;;;;;;22.47;48.75;100647.25;5066295;28;20493;-75
2022/09/08 04:46:28;;;;;;;53.15;50.20;;;;;;;22.46;49.40;100642.91;5052512;28;20116;-73
2022/09/08 04:48:54;;;;;;;54.80;51.50;;;;;;;22.45;49.17;100646.75;5050188;28;20378;-73
2022/09/08 04:51:21;;;;;;;52.60;49.67;;;;;;;22.43;49.20;100649.84;5050199;28;20543;-73
2022/09/08 04:53:47;;;;;;;52.03;49.17;;;;;;;22.42;49.09;100653.72;5048503;28;20029;-73
2022/09/08 04:56:15;;;;;;;51.00;48.38;;;;;;;22.41;48.94;100660.38;5034277;28;20037;-73
2022/09/08 04:58:42;;;;;;;52.33;49.33;;;;;;;22.40;48.85;100656.03;5051109;28;20087;-74
2022/09/08 05:01:19;;;;;;;53.47;50.53;;;;;;;22.39;49.02;100659.88;5044510;28;20037;-74
2022/09/08 05:03:47;;;;;;;51.28;48.42;;;;;;;22.38;49.05;100668.50;5052222;28;20480;-74
2022/09/08 05:06:15;;;;;;;51.78;49.15;;;;;;;22.38;49.34;100662.97;5048823;28;20604;-74
2022/09/08 05:08:44;;;;;;;;;;;;;;;22.35;48.58;100658.94;5041504;28;20029;-74
2022/09/08 05:11:10;;;;;;;51.47;48.80;;;;;;;22.34;48.77;100656.50;5050465;28;20107;-74
2022/09/08 05:13:36;;;;;;;50.35;47.95;;;;;;;22.31;48.51;100657.16;5077506;28;20041;-75
2022/09/08 05:16:04;;;;;;;53.67;50.88;;;;;;;22.31;48.78;100662.66;5047820;28;20029;-75
2022/09/08 05:18:29;;;;;;;53.33;50.03;;;;;;;22.29;49.06;100662.97;5053888;28;20392;-74
2022/09/08 05:20:55;;;;;;;51.25;48.15;;;;;;;22.28;49.00;100661.38;5046116;28;20033;-74
2022/09/08 05:23:21;;;;;;;55.38;52.50;;;;;;;22.27;49.21;100664.44;5051143;28;20029;-75
2022/09/08 05:25:55;;;;;;;51.03;48.25;;;;;;;22.25;49.75;100667.50;5033645;28;20155;-75
2022/09/08 05:28:21;;;;;;;54.78;51.92;;;;;;;22.24;49.52;100658.44;5052211;28;20142;-74
2022/09/08 05:30:46;;;;;;;50.95;48.28;;;;;;;22.23;49.51;100669.78;5050415;28;20070;-74
2022/09/08 05:33:12;;;;;;;55.50;52.35;;;;;;;22.22;49.90;100668.13;5017003;28;20064;-74
2022/09/08 05:35:37;;;;;;;52.47;49.63;;;;;;;22.21;49.87;100666.53;5073762;28;20037;-73
2022/09/08 05:38:02;;;;;;;51.00;48.20;;;;;;;22.19;50.40;100657.75;5048547;28;20048;-73
2022/09/08 05:40:28;;;;;;;51.88;49.08;;;;;;;22.19;50.43;100661.34;5040480;28;20040;-74
2022/09/08 05:42:53;;;;;;;52.63;49.88;;;;;;;22.18;50.18;100656.16;5042171;28;20159;-76
2022/09/08 05:45:19;;;;;;;51.88;49.20;;;;;;;22.17;50.37;100662.78;5041406;28;20736;-73
2022/09/08 05:47:44;;;;;;;51.15;48.40;;;;;;;22.16;50.56;100661.16;5043140;28;20502;-74
2022/09/08 05:50:09;;;;;;;51.20;48.60;;;;;;;22.15;50.09;100670.53;5044753;28;20468;-74
2022/09/08 05:52:35;;;;;;;49.88;47.28;;;;;;;22.12;49.83;100673.94;5042777;28;20037;-73
2022/09/08 05:55:00;;;;;;;52.78;49.85;;;;;;;22.11;49.95;100675.06;5038730;28;20462;-74
2022/09/08 05:57:27;;;;;;;50.60;47.70;;;;;;;22.11;49.87;100675.06;5040040;28;20047;-72
2022/09/08 05:59:53;;;;;;;50.90;48.20;;;;;;;22.10;49.95;100662.44;5039931;28;20029;-71
2022/09/08 06:02:18;;;;;;;51.53;49.03;;;;;;;22.09;50.03;100671.84;5047366;28;20067;-73
2022/09/08 06:04:43;;;;;;;52.60;49.80;;;;;;;22.07;50.46;100669.38;5040811;28;20470;-72
2022/09/08 06:07:09;;;;;;;54.42;51.20;;;;;;;22.06;50.08;100666.97;5063822;28;20385;-72
2022/09/08 06:09:34;;;;;;;52.28;49.40;;;;;;;22.06;50.09;100676.03;5039596;28;20029;-72
2022/09/08 06:12:00;;;;;;;52.92;49.70;;;;;;;22.04;50.14;100678.28;5045140;28;20063;-73
2022/09/08 06:14:25;;;;;;;52.20;48.97;;;;;;;22.02;49.99;100670.38;5050172;28;20469;-75
2022/09/08 06:16:50;;;;;;;52.17;49.22;;;;;;;22.02;50.31;100672.28;5050030;28;20048;-76
2022/09/08 06:19:16;;;;;;;50.55;47.90;;;;;;;22.02;50.32;100675.03;5050976;28;20112;-74
2022/09/08 06:21:41;;;;;;;50.47;47.75;;;;;;;22.00;50.57;100675.38;5040089;28;20086;-72
2022/09/08 06:24:07;;;;;;;53.28;49.67;;;;;;;21.98;50.75;100674.09;5051179;28;20051;-72
2022/09/08 06:26:54;;;;;;;49.92;47.15;;;;;;;21.98;51.27;100679.59;5045157;28;20063;-75
2022/09/08 06:29:38;;;;;;;50.83;47.60;;;;;;;21.96;51.68;100682.66;5039219;28;20036;-74
2022/09/08 06:32:19;;;;;;;51.92;48.85;;;;;;;21.94;51.17;100678.59;5042804;28;20044;-74
2022/09/08 06:34:47;;;;;;;49.97;47.33;;;;;;;21.93;50.89;100677.00;5051253;28;20493;-73
2022/09/08 06:37:32;;;;;;;52.75;49.65;;;;;;;21.93;51.04;100677.00;5046632;28;20029;-73
2022/09/08 06:40:26;;;;;;;49.78;46.80;;;;;;;21.92;51.30;100669.84;5043728;28;20304;-74
2022/09/08 06:43:07;;;;;;;48.85;46.03;;;;;;;21.91;51.43;100679.25;5023783;28;20047;-74
2022/09/08 06:45:43;;;;;;;48.15;45.45;;;;;;;21.89;51.00;100670.50;5046423;28;20568;-75
2022/09/08 06:48:15;;;;;;;52.70;49.50;;;;;;;21.88;51.27;100672.44;5047293;28;20040;-74
2022/09/08 06:51:06;;;;;;;50.60;47.65;;;;;;;21.88;51.18;100672.44;5048606;28;20033;-73
2022/09/08 06:53:35;;;;;;;53.50;49.67;;;;;;;21.87;51.14;100672.75;5046005;28;20473;-73
2022/09/08 06:56:38;;;;;;;52.83;50.00;;;;;;;21.85;50.99;100681.34;5044686;28;20037;-73
2022/09/08 06:59:14;;;;;;;51.83;48.47;;;;;;;21.82;50.82;100677.28;5046616;28;20033;-72
2022/09/08 07:01:54;;;;;;;49.58;46.72;;;;;;;21.81;50.76;100675.66;5045832;28;20036;-73
2022/09/08 07:04:46;;;;;;;51.70;48.63;;;;;;;21.81;50.86;100672.09;5042802;28;20032;-73
2022/09/08 07:07:31;;;;;;;51.45;48.55;;;;;;;21.79;50.73;100680.66;5013350;28;20076;-73
2022/09/08 07:10:09;;;;;;;51.63;48.67;;;;;;;21.79;51.03;100677.09;5050253;28;20037;-72
2022/09/08 07:12:52;;;;;;;50.15;47.47;;;;;;;21.78;51.35;100673.56;5052050;28;20475;-74
2022/09/08 07:15:17;;;;;;;51.80;48.97;;;;;;;21.78;51.01;100675.50;5049913;28;20114;-72
2022/09/08 07:17:45;;;;;;;50.25;47.38;;;;;;;21.77;51.30;100680.19;5052426;28;20036;-72
2022/09/08 07:20:11;;;;;;;54.10;50.70;;;;;;;21.76;50.65;100675.81;5050937;28;20473;-71
2022/09/08 07:22:59;;;;;;;51.20;47.90;;;;;;;21.77;51.03;100680.19;5044871;28;20041;-71
2022/09/08 07:25:34;;;;;;;50.58;47.85;;;;;;;21.77;51.30;100684.88;5049031;28;20045;-72
2022/09/08 07:28:14;;;;;;;49.95;47.05;;;;;;;21.77;51.45;100685.69;5044926;28;20076;-72
2022/09/08 07:30:41;;;;;;;49.90;46.88;;;;;;;21.79;51.38;100688.09;5050140;28;20124;-72
2022/09/08 07:33:31;;;;;;;49.17;46.47;;;;;;;21.77;51.00;100691.19;5050490;28;20041;-72
2022/09/08 07:36:03;;;;;;;50.92;48.13;;;;;;;21.77;50.84;100699.44;5045619;28;20132;-73
2022/09/08 07:38:45;;;;;;;52.22;49.53;;;;;;;21.77;51.54;100690.34;5048027;28;20040;-72
2022/09/08 07:41:16;;;;;;;51.22;48.42;;;;;;;21.77;51.05;100690.34;5043302;28;20465;-72
2022/09/08 07:43:42;;;;;;;50.97;48.42;;;;;;;21.79;51.53;100693.59;5050437;28;20098;-72
2022/09/08 07:46:22;;;;;;;52.13;49.20;;;;;;;21.78;51.50;100683.75;5049964;28;20427;-73
2022/09/08 07:48:47;;;;;;;49.40;46.95;;;;;;;21.78;51.17;100684.56;5050896;28;20657;-73
2022/09/08 07:51:16;;;;;;;51.90;48.75;;;;;;;21.79;51.23;100696.34;5047520;28;20041;-73
2022/09/08 07:54:09;;;;;;;47.92;45.33;;;;;;;21.79;50.77;100688.09;5046428;28;20041;-73
2022/09/08 07:56:43;;;;;;;47.78;45.40;;;;;;;21.78;50.77;100698.31;5047275;28;20047;-73
2022/09/08 07:59:16;;;;;;;50.63;47.80;;;;;;;21.77;51.08;100687.59;5047932;28;20052;-72
2022/09/08 08:01:50;;;;;;;48.38;45.75;;;;;;;21.79;51.17;100694.41;5048540;28;20412;-73
2022/09/08 08:04:30;;;;;;;54.90;51.97;;;;;;;21.80;51.38;100690.56;5047208;28;20086;-73
2022/09/08 08:06:58;;;;;;;47.92;45.63;;;;;;;21.81;51.31;100692.16;5049573;28;20033;-68
2022/09/08 08:09:24;;;;;;;49.05;46.50;;;;;;;21.85;51.39;100692.34;5049903;28;20033;-74
2022/09/08 08:11:52;;;;;;;48.13;45.42;;;;;;;21.86;51.50;100682.94;5048936;28;20056;-72
2022/09/08 08:14:33;;;;;;;47.90;45.30;;;;;;;21.88;50.91;100690.91;5044437;28;20033;-72
2022/09/08 08:17:10;;;;;;;47.92;45.53;;;;;;;21.89;51.17;100687.00;5048398;28;20037;-72
2022/09/08 08:19:52;;;;;;;47.17;44.67;;;;;;;21.90;51.43;100683.94;5047831;28;20037;-74
2022/09/08 08:22:30;;;;;;;49.60;47.00;;;;;;;21.91;51.40;100696.56;5049023;28;20041;-73
2022/09/08 08:25:29;;;;;;;52.63;50.03;;;;;;;21.91;51.12;100693.81;5047526;28;20557;-74
2022/09/08 08:28:17;;;;;;;48.83;45.95;;;;;;;21.92;51.11;100695.41;5049000;28;20041;-73
2022/09/08 08:31:24;;;;;;;48.17;45.58;;;;;;;21.93;51.10;100694.28;5047254;28;20389;-74
2022/09/08 08:34:00;;;;;;;49.00;46.30;;;;;;;21.93;50.89;100705.28;5033242;28;20049;-74
2022/09/08 08:36:29;;;;;;;48.65;46.10;;;;;;;21.95;51.67;100705.78;5047692;28;20574;-73
2022/09/08 08:39:17;;;;;;;53.28;50.55;;;;;;;21.96;51.42;100696.41;5046700;28;20446;-73
2022/09/08 08:41:46;;;;;;;;;;;;;;;21.97;51.21;100698.03;5048180;28;20542;-74
2022/09/08 08:44:23;;;;;;;49.25;46.45;;;;;;;21.97;50.73;100703.53;5047321;28;19917;-72
2022/09/08 08:47:18;;;;;;;50.63;47.60;;;;;;;21.98;50.98;100705.16;5045071;28;20083;-72
2022/09/08 08:50:20;;;;;;;49.50;46.80;;;;;;;21.99;50.92;100706.75;5047716;28;20036;-74
2022/09/08 08:53:03;;;;;;;47.85;45.15;;;;;;;22.01;50.91;100707.25;5045122;28;20045;-73
2022/09/08 08:55:53;;;;;;;49.58;47.08;;;;;;;22.03;50.97;100713.25;5042748;28;20159;-72
2022/09/08 08:59:00;;;;;;;52.47;49.58;;;;;;;22.05;50.93;100710.19;5044514;28;20041;-74
2022/09/08 09:01:55;;;;;;;49.30;46.70;;;;;;;22.08;51.15;100703.22;5040296;28;20143;-73
2022/09/08 09:04:42;;;;;;;51.45;48.05;;;;;;;22.10;50.39;100700.94;5048058;28;20546;-73
2022/09/08 09:07:33;;;;;;;49.72;47.25;;;;;;;22.10;50.72;100699.03;5048646;28;20037;-73
2022/09/08 09:10:13;;;;;;;50.83;48.15;;;;;;;22.12;50.47;100701.44;5044593;28;20071;-74
2022/09/08 09:13:02;;;;;;;50.17;47.30;;;;;;;22.14;50.69;100705.50;5046692;28;20033;-73
2022/09/08 09:15:51;;;;;;;49.83;47.17;;;;;;;22.14;50.52;100702.75;5048098;28;20048;-73
2022/09/08 09:18:34;;;;;;;;;;;;;;;22.16;50.35;100702.44;5046543;28;20034;-73
2022/09/08 09:21:41;;;;;;;47.50;44.70;;;;;;;22.17;49.95;100712.28;5046262;28;19921;-73
2022/09/08 09:24:28;;;;;;;49.25;46.53;;;;;;;22.18;50.35;100705.66;5015965;28;20044;-73
2022/09/08 09:26:53;;;;;;;47.63;45.33;;;;;;;22.18;49.83;100709.22;5046287;28;20063;-73
2022/09/08 09:29:26;;;;;;;53.13;50.53;;;;;;;22.20;49.93;100703.41;5047520;28;20133;-74
2022/09/08 09:32:14;;;;;;;50.42;47.83;;;;;;;22.21;50.08;100699.53;5046802;28;20059;-73
2022/09/08 09:34:58;;;;;;;50.25;47.45;;;;;;;22.22;50.11;100712.16;5047858;28;20033;-72
2022/09/08 09:37:49;;;;;;;50.75;48.05;;;;;;;22.24;50.59;100702.44;5048009;28;20111;-74
2022/09/08 09:40:32;;;;;;;50.70;48.03;;;;;;;22.24;50.43;100704.41;5045501;28;20029;-71
2022/09/08 09:43:13;;;;;;;50.00;47.22;;;;;;;22.25;50.41;100704.09;5045000;28;20044;-73
2022/09/08 09:45:56;;;;;;;50.53;47.90;;;;;;;22.27;50.46;100701.00;5047507;28;20036;-72
2022/09/08 09:48:34;;;;;;;51.90;48.65;;;;;;;22.28;50.53;100699.88;5045011;28;20469;-73
2022/09/08 09:51:17;;;;;;;47.97;45.40;;;;;;;22.30;49.93;100692.13;5042941;28;20094;-72
2022/09/08 09:54:00;;;;;;;48.08;45.40;;;;;;;22.31;50.13;100698.44;5048087;28;20029;-73
2022/09/08 09:57:04;;;;;;;52.53;49.85;;;;;;;22.32;50.02;100698.09;5049434;28;20056;-72
2022/09/08 09:59:57;;;;;;;50.08;47.20;;;;;;;22.35;49.52;100697.47;5036613;28;20509;-72
2022/09/08 10:02:40;;;;;;;49.90;47.25;;;;;;;22.37;49.78;100691.63;5034194;28;20048;-72
2022/09/08 10:05:47;;;;;;;51.35;48.33;;;;;;;22.39;49.73;100694.88;5044310;28;20057;-74
2022/09/08 10:08:25;;;;;;;51.30;48.30;;;;;;;22.40;50.03;100697.31;4966713;28;20403;-73
2022/09/08 10:11:00;;;;;;;47.92;45.22;;;;;;;22.41;50.23;100698.09;5036166;28;20057;-73
2022/09/08 10:13:28;;;;;;;50.85;48.08;;;;;;;22.43;50.19;100695.84;5048307;28;20060;-73
2022/09/08 10:16:02;;;;;;;52.75;50.08;;;;;;;22.45;49.65;100688.88;5049449;28;20044;-78
2022/09/08 10:18:46;;;;;;;52.60;50.00;;;;;;;22.47;50.15;100686.59;5048566;28;20032;-73
2022/09/08 10:21:43;;;;;;;50.47;48.05;;;;;;;22.49;49.92;100697.28;5049116;28;20506;-72
2022/09/08 10:24:32;;;;;;;50.22;47.70;;;;;;;22.50;49.89;100685.13;5048498;28;20086;-72
2022/09/08 10:27:39;;;;;;;51.60;49.15;;;;;;;22.52;49.95;100691.13;5034257;28;20527;-73
2022/09/08 10:30:19;;;;;;;49.92;47.30;;;;;;;22.54;49.83;100679.81;5015965;28;20549;-73
2022/09/08 10:33:02;;;;;;;48.50;46.10;;;;;;;22.57;49.91;100698.41;5031119;28;20037;-72
2022/09/08 10:35:46;;;;;;;53.30;50.28;;;;;;;22.59;49.90;100688.69;5048232;28;20393;-73
2022/09/08 10:38:48;;;;;;;51.42;48.70;;;;;;;22.61;49.90;100700.19;5047497;28;20179;-72
2022/09/08 10:41:17;;;;;;;48.65;46.05;;;;;;;22.63;49.20;100694.38;5045518;28;20090;-72
2022/09/08 10:44:01;;;;;;;53.15;50.15;;;;;;;22.66;49.44;100696.47;5050046;28;20041;-75
2022/09/08 10:46:35;;;;;;;50.42;47.83;;;;;;;22.67;49.61;100700.84;5035631;28;20029;-72
2022/09/08 10:49:18;;;;;;;53.08;50.28;;;;;;;22.69;49.59;100695.81;5033343;28;20025;-72
2022/09/08 10:52:11;;;;;;;50.38;47.58;;;;;;;22.70;49.34;100689.16;5049574;28;20025;-72
2022/09/08 10:55:15;;;;;;;50.78;48.28;;;;;;;22.71;49.15;100679.78;5049041;28;20478;-75
2022/09/08 10:57:49;;;;;;;52.80;50.10;;;;;;;22.73;49.38;100691.28;5050749;28;20091;-72
2022/09/08 11:00:19;;;;;;;52.08;49.30;;;;;;;22.74;49.31;100690.16;5051355;28;20096;-71
2022/09/08 11:02:44;;;;;;;53.92;50.95;;;;;;;22.76;48.91;100687.88;5051167;28;20033;-72
2022/09/08 11:05:37;;;;;;;50.92;48.10;;;;;;;22.78;49.16;100676.53;5050339;28;20037;-73
2022/09/08 11:08:18;;;;;;;53.35;50.85;;;;;;;22.80;48.93;100679.75;5051159;28;20032;-72
2022/09/08 11:11:25;;;;;;;52.17;49.53;;;;;;;22.81;48.74;100684.97;5049915;28;20067;-73
2022/09/08 11:13:56;;;;;;;50.33;47.75;;;;;;;22.83;49.07;100688.19;5050117;28;20087;-74
2022/09/08 11:16:57;;;;;;;54.97;52.20;;;;;;;22.86;49.05;100690.28;5050428;28;20515;-72
2022/09/08 11:19:39;;;;;;;51.83;49.00;;;;;;;22.88;48.69;100685.28;4972704;28;20121;-72
2022/09/08 11:22:27;;;;;;;54.60;51.72;;;;;;;22.88;48.79;100679.75;5044764;28;20382;-72
2022/09/08 11:25:01;;;;;;;;;;;;;;;22.89;48.55;100675.84;5051184;28;20078;-72
2022/09/08 11:27:48;;;;;;;53.55;50.40;;;;;;;22.92;48.82;100676.34;5045968;28;20003;-73
2022/09/08 11:30:27;;;;;;;53.55;50.75;;;;;;;22.91;48.37;100667.28;5044028;28;20025;-73
2022/09/08 11:33:21;;;;;;;53.83;50.92;;;;;;;22.93;48.39;100666.94;5050871;28;20469;-72
2022/09/08 11:36:00;;;;;;;51.28;48.47;;;;;;;22.93;48.27;100662.25;5049691;28;20100;-73
2022/09/08 11:38:30;;;;;;;53.13;50.47;;;;;;;22.96;48.71;100667.09;5051417;28;20108;-71
2022/09/08 11:41:22;;;;;;;51.90;49.35;;;;;;;22.98;48.72;100666.78;5031914;28;20052;-72
2022/09/08 11:44:06;;;;;;;50.90;48.10;;;;;;;23.00;48.74;100662.56;5031492;28;20075;-73